sensor_id;sensor_type;location;lat;lon;timestamp;P1;durP1;ratioP1;P2;durP2;ratioP2
37065;SDS011;22981;43.080;25.550;2022-12-04T00:01:39;21.87;;;14.23;;
37065;SDS011;22981;43.080;25.550;2022-12-04T00:04:08;21.15;;;14.03;;
37065;SDS011;22981;43.080;25.550;2022-12-04T00:06:35;19.52;;;13.28;;
37065;SDS011;22981;43.080;25.550;2022-12-04T00:09:03;28.65;;;16.07;;
37065;SDS011;22981;43.080;25.550;2022-12-04T00:11:31;19.87;;;11.83;;
37065;SDS011;22981;43.080;25.550;2022-12-04T00:13:59;21.07;;;13.10;;
37065;SDS011;22981;43.080;25.550;2022-12-04T00:16:27;31.95;;;17.90;;
37065;SDS011;22981;43.080;25.550;2022-12-04T00:18:55;37.33;;;22.62;;
37065;SDS011;22981;43.080;25.550;2022-12-04T00:21:24;27.62;;;17.15;;
37065;SDS011;22981;43.080;25.550;2022-12-04T00:23:52;22.40;;;13.18;;
37065;SDS011;22981;43.080;25.550;2022-12-04T00:26:23;22.05;;;15.08;;
37065;SDS011;22981;43.080;25.550;2022-12-04T00:28:53;18.42;;;13.98;;
37065;SDS011;22981;43.080;25.550;2022-12-04T00:31:22;20.82;;;14.70;;
37065;SDS011;22981;43.080;25.550;2022-12-04T00:33:51;20.52;;;13.72;;
37065;SDS011;22981;43.080;25.550;2022-12-04T00:36:19;18.37;;;12.50;;
37065;SDS011;22981;43.080;25.550;2022-12-04T00:38:49;19.80;;;13.35;;
37065;SDS011;22981;43.080;25.550;2022-12-04T00:41:19;17.85;;;12.37;;
37065;SDS011;22981;43.080;25.550;2022-12-04T00:43:48;17.48;;;11.65;;
37065;SDS011;22981;43.080;25.550;2022-12-04T00:46:15;19.48;;;12.40;;
37065;SDS011;22981;43.080;25.550;2022-12-04T00:48:43;18.05;;;12.85;;
37065;SDS011;22981;43.080;25.550;2022-12-04T00:51:12;17.23;;;12.05;;
37065;SDS011;22981;43.080;25.550;2022-12-04T00:53:41;17.87;;;12.65;;
37065;SDS011;22981;43.080;25.550;2022-12-04T00:56:10;20.68;;;14.18;;
37065;SDS011;22981;43.080;25.550;2022-12-04T00:58:42;21.37;;;14.07;;
37065;SDS011;22981;43.080;25.550;2022-12-04T01:01:11;24.02;;;15.30;;
37065;SDS011;22981;43.080;25.550;2022-12-04T01:03:41;25.02;;;15.58;;
37065;SDS011;22981;43.080;25.550;2022-12-04T01:08:49;28.45;;;16.52;;
37065;SDS011;22981;43.080;25.550;2022-12-04T01:11:18;26.50;;;15.93;;
37065;SDS011;22981;43.080;25.550;2022-12-04T01:13:46;26.87;;;16.27;;
37065;SDS011;22981;43.080;25.550;2022-12-04T01:16:15;30.50;;;17.42;;
37065;SDS011;22981;43.080;25.550;2022-12-04T01:18:45;25.62;;;16.75;;
37065;SDS011;22981;43.080;25.550;2022-12-04T01:21:12;29.92;;;18.45;;
37065;SDS011;22981;43.080;25.550;2022-12-04T01:23:40;29.52;;;19.17;;
37065;SDS011;22981;43.080;25.550;2022-12-04T01:26:09;31.17;;;19.15;;
37065;SDS011;22981;43.080;25.550;2022-12-04T01:28:37;37.40;;;21.23;;
37065;SDS011;22981;43.080;25.550;2022-12-04T01:31:10;35.88;;;20.57;;
37065;SDS011;22981;43.080;25.550;2022-12-04T01:33:39;44.83;;;21.68;;
37065;SDS011;22981;43.080;25.550;2022-12-04T01:36:09;31.35;;;20.25;;
37065;SDS011;22981;43.080;25.550;2022-12-04T01:38:38;39.30;;;21.52;;
37065;SDS011;22981;43.080;25.550;2022-12-04T01:41:07;38.02;;;21.33;;
37065;SDS011;22981;43.080;25.550;2022-12-04T01:43:36;41.65;;;21.40;;
37065;SDS011;22981;43.080;25.550;2022-12-04T01:46:05;33.70;;;21.35;;
37065;SDS011;22981;43.080;25.550;2022-12-04T01:48:34;28.47;;;19.55;;
37065;SDS011;22981;43.080;25.550;2022-12-04T01:51:12;31.12;;;18.23;;
37065;SDS011;22981;43.080;25.550;2022-12-04T01:53:44;32.85;;;21.17;;
37065;SDS011;22981;43.080;25.550;2022-12-04T01:56:13;28.98;;;19.40;;
37065;SDS011;22981;43.080;25.550;2022-12-04T01:58:43;36.45;;;21.35;;
37065;SDS011;22981;43.080;25.550;2022-12-04T02:01:13;32.28;;;20.68;;
37065;SDS011;22981;43.080;25.550;2022-12-04T02:03:40;39.48;;;20.20;;
37065;SDS011;22981;43.080;25.550;2022-12-04T02:06:08;33.35;;;20.72;;
37065;SDS011;22981;43.080;25.550;2022-12-04T02:08:36;34.55;;;21.68;;
37065;SDS011;22981;43.080;25.550;2022-12-04T02:14:06;33.70;;;19.85;;
37065;SDS011;22981;43.080;25.550;2022-12-04T02:17:00;44.00;;;22.15;;
37065;SDS011;22981;43.080;25.550;2022-12-04T02:22:03;30.35;;;20.68;;
37065;SDS011;22981;43.080;25.550;2022-12-04T02:24:39;31.52;;;20.90;;
37065;SDS011;22981;43.080;25.550;2022-12-04T02:32:50;33.48;;;20.40;;
37065;SDS011;22981;43.080;25.550;2022-12-04T02:35:32;31.33;;;20.23;;
37065;SDS011;22981;43.080;25.550;2022-12-04T02:38:05;35.33;;;20.90;;
37065;SDS011;22981;43.080;25.550;2022-12-04T02:40:38;33.80;;;20.45;;
37065;SDS011;22981;43.080;25.550;2022-12-04T02:43:09;43.87;;;21.60;;
37065;SDS011;22981;43.080;25.550;2022-12-04T02:45:45;39.53;;;22.02;;
37065;SDS011;22981;43.080;25.550;2022-12-04T02:48:15;30.23;;;19.20;;
37065;SDS011;22981;43.080;25.550;2022-12-04T02:50:45;30.40;;;19.90;;
37065;SDS011;22981;43.080;25.550;2022-12-04T02:53:19;39.15;;;21.42;;
37065;SDS011;22981;43.080;25.550;2022-12-04T02:55:59;32.58;;;19.95;;
37065;SDS011;22981;43.080;25.550;2022-12-04T02:58:43;35.60;;;19.80;;
37065;SDS011;22981;43.080;25.550;2022-12-04T03:01:14;32.23;;;19.87;;
37065;SDS011;22981;43.080;25.550;2022-12-04T03:06:28;36.45;;;20.27;;
37065;SDS011;22981;43.080;25.550;2022-12-04T03:08:59;34.25;;;18.98;;
37065;SDS011;22981;43.080;25.550;2022-12-04T03:11:28;30.48;;;18.50;;
37065;SDS011;22981;43.080;25.550;2022-12-04T03:14:12;26.42;;;16.48;;
37065;SDS011;22981;43.080;25.550;2022-12-04T03:16:40;30.53;;;16.70;;
37065;SDS011;22981;43.080;25.550;2022-12-04T03:19:19;26.93;;;17.25;;
37065;SDS011;22981;43.080;25.550;2022-12-04T03:21:53;34.88;;;18.77;;
37065;SDS011;22981;43.080;25.550;2022-12-04T03:24:39;35.50;;;18.42;;
37065;SDS011;22981;43.080;25.550;2022-12-04T03:29:45;39.33;;;19.40;;
37065;SDS011;22981;43.080;25.550;2022-12-04T03:32:22;46.73;;;19.40;;
37065;SDS011;22981;43.080;25.550;2022-12-04T03:34:54;31.93;;;17.60;;
37065;SDS011;22981;43.080;25.550;2022-12-04T03:37:36;31.65;;;17.70;;
37065;SDS011;22981;43.080;25.550;2022-12-04T03:40:25;29.92;;;15.93;;
37065;SDS011;22981;43.080;25.550;2022-12-04T03:43:00;24.55;;;16.17;;
37065;SDS011;22981;43.080;25.550;2022-12-04T03:45:49;24.07;;;17.17;;
37065;SDS011;22981;43.080;25.550;2022-12-04T03:51:02;34.63;;;16.65;;
37065;SDS011;22981;43.080;25.550;2022-12-04T03:53:53;31.93;;;15.13;;
37065;SDS011;22981;43.080;25.550;2022-12-04T03:56:23;27.02;;;15.05;;
37065;SDS011;22981;43.080;25.550;2022-12-04T03:58:56;23.83;;;14.53;;
37065;SDS011;22981;43.080;25.550;2022-12-04T04:01:27;22.07;;;13.65;;
37065;SDS011;22981;43.080;25.550;2022-12-04T04:03:56;22.48;;;14.10;;
37065;SDS011;22981;43.080;25.550;2022-12-04T04:06:31;24.23;;;14.33;;
37065;SDS011;22981;43.080;25.550;2022-12-04T04:09:01;20.70;;;13.43;;
37065;SDS011;22981;43.080;25.550;2022-12-04T04:11:35;20.43;;;13.83;;
37065;SDS011;22981;43.080;25.550;2022-12-04T04:14:07;20.25;;;13.90;;
37065;SDS011;22981;43.080;25.550;2022-12-04T04:17:02;24.07;;;14.75;;
37065;SDS011;22981;43.080;25.550;2022-12-04T04:19:57;22.32;;;14.47;;
37065;SDS011;22981;43.080;25.550;2022-12-04T04:22:50;34.35;;;15.23;;
37065;SDS011;22981;43.080;25.550;2022-12-04T04:25:38;29.27;;;15.80;;
37065;SDS011;22981;43.080;25.550;2022-12-04T04:36:59;25.17;;;15.13;;
37065;SDS011;22981;43.080;25.550;2022-12-04T04:39:38;20.72;;;11.43;;
37065;SDS011;22981;43.080;25.550;2022-12-04T04:47:27;24.75;;;15.75;;
37065;SDS011;22981;43.080;25.550;2022-12-04T04:50:00;34.90;;;15.88;;
37065;SDS011;22981;43.080;25.550;2022-12-04T04:52:30;24.67;;;14.23;;
37065;SDS011;22981;43.080;25.550;2022-12-04T04:54:59;36.50;;;17.05;;
37065;SDS011;22981;43.080;25.550;2022-12-04T04:57:29;25.72;;;15.03;;
37065;SDS011;22981;43.080;25.550;2022-12-04T05:00:01;38.85;;;15.32;;
37065;SDS011;22981;43.080;25.550;2022-12-04T05:02:30;27.45;;;14.40;;
37065;SDS011;22981;43.080;25.550;2022-12-04T05:04:59;23.00;;;14.83;;
37065;SDS011;22981;43.080;25.550;2022-12-04T05:07:26;27.82;;;14.05;;
37065;SDS011;22981;43.080;25.550;2022-12-04T05:09:54;21.75;;;14.18;;
37065;SDS011;22981;43.080;25.550;2022-12-04T05:12:21;23.02;;;16.70;;
37065;SDS011;22981;43.080;25.550;2022-12-04T05:14:49;20.50;;;13.28;;
37065;SDS011;22981;43.080;25.550;2022-12-04T05:17:16;23.67;;;14.58;;
37065;SDS011;22981;43.080;25.550;2022-12-04T05:19:44;26.70;;;13.98;;
37065;SDS011;22981;43.080;25.550;2022-12-04T05:22:31;29.27;;;13.90;;
37065;SDS011;22981;43.080;25.550;2022-12-04T05:24:59;24.55;;;17.30;;
37065;SDS011;22981;43.080;25.550;2022-12-04T05:27:28;27.35;;;18.55;;
37065;SDS011;22981;43.080;25.550;2022-12-04T05:29:57;56.13;;;35.60;;
37065;SDS011;22981;43.080;25.550;2022-12-04T05:32:26;33.02;;;22.42;;
37065;SDS011;22981;43.080;25.550;2022-12-04T05:34:55;25.92;;;17.27;;
37065;SDS011;22981;43.080;25.550;2022-12-04T05:37:23;27.98;;;18.55;;
37065;SDS011;22981;43.080;25.550;2022-12-04T05:39:51;23.67;;;16.90;;
37065;SDS011;22981;43.080;25.550;2022-12-04T05:42:19;15.43;;;11.83;;
37065;SDS011;22981;43.080;25.550;2022-12-04T05:44:47;14.50;;;10.10;;
37065;SDS011;22981;43.080;25.550;2022-12-04T05:47:15;13.13;;;9.93;;
37065;SDS011;22981;43.080;25.550;2022-12-04T05:49:43;19.00;;;13.38;;
37065;SDS011;22981;43.080;25.550;2022-12-04T05:52:10;19.23;;;13.93;;
37065;SDS011;22981;43.080;25.550;2022-12-04T05:54:38;18.80;;;12.90;;
37065;SDS011;22981;43.080;25.550;2022-12-04T05:57:05;15.50;;;10.72;;
37065;SDS011;22981;43.080;25.550;2022-12-04T05:59:33;12.63;;;8.33;;
37065;SDS011;22981;43.080;25.550;2022-12-04T06:02:01;13.90;;;9.35;;
37065;SDS011;22981;43.080;25.550;2022-12-04T06:04:28;14.05;;;9.40;;
37065;SDS011;22981;43.080;25.550;2022-12-04T06:06:56;16.48;;;10.60;;
37065;SDS011;22981;43.080;25.550;2022-12-04T06:09:24;13.78;;;11.03;;
37065;SDS011;22981;43.080;25.550;2022-12-04T06:11:55;16.45;;;10.58;;
37065;SDS011;22981;43.080;25.550;2022-12-04T06:14:22;13.43;;;9.40;;
37065;SDS011;22981;43.080;25.550;2022-12-04T06:16:50;11.73;;;8.90;;
37065;SDS011;22981;43.080;25.550;2022-12-04T06:19:18;14.63;;;9.05;;
37065;SDS011;22981;43.080;25.550;2022-12-04T06:21:48;15.20;;;9.38;;
37065;SDS011;22981;43.080;25.550;2022-12-04T06:24:20;15.58;;;10.60;;
37065;SDS011;22981;43.080;25.550;2022-12-04T06:26:49;16.10;;;10.98;;
37065;SDS011;22981;43.080;25.550;2022-12-04T06:29:18;16.50;;;10.28;;
37065;SDS011;22981;43.080;25.550;2022-12-04T06:31:46;17.85;;;11.33;;
37065;SDS011;22981;43.080;25.550;2022-12-04T06:34:13;19.55;;;12.78;;
37065;SDS011;22981;43.080;25.550;2022-12-04T06:36:41;15.72;;;10.78;;
37065;SDS011;22981;43.080;25.550;2022-12-04T06:39:09;18.82;;;12.13;;
37065;SDS011;22981;43.080;25.550;2022-12-04T06:41:36;19.77;;;13.08;;
37065;SDS011;22981;43.080;25.550;2022-12-04T06:44:04;18.30;;;12.25;;
37065;SDS011;22981;43.080;25.550;2022-12-04T06:46:32;19.48;;;12.28;;
37065;SDS011;22981;43.080;25.550;2022-12-04T06:49:00;24.85;;;17.32;;
37065;SDS011;22981;43.080;25.550;2022-12-04T06:51:29;26.00;;;17.12;;
37065;SDS011;22981;43.080;25.550;2022-12-04T06:53:59;24.07;;;14.13;;
37065;SDS011;22981;43.080;25.550;2022-12-04T06:56:28;26.65;;;16.35;;
37065;SDS011;22981;43.080;25.550;2022-12-04T06:58:58;28.07;;;17.50;;
37065;SDS011;22981;43.080;25.550;2022-12-04T07:01:27;23.25;;;14.05;;
37065;SDS011;22981;43.080;25.550;2022-12-04T07:03:56;24.80;;;15.80;;
37065;SDS011;22981;43.080;25.550;2022-12-04T07:06:26;27.07;;;16.57;;
37065;SDS011;22981;43.080;25.550;2022-12-04T07:08:59;28.80;;;16.17;;
37065;SDS011;22981;43.080;25.550;2022-12-04T07:11:29;26.02;;;16.42;;
37065;SDS011;22981;43.080;25.550;2022-12-04T07:13:57;27.82;;;17.20;;
37065;SDS011;22981;43.080;25.550;2022-12-04T07:16:25;33.25;;;17.15;;
37065;SDS011;22981;43.080;25.550;2022-12-04T07:18:54;30.05;;;14.38;;
37065;SDS011;22981;43.080;25.550;2022-12-04T07:21:26;25.88;;;15.75;;
37065;SDS011;22981;43.080;25.550;2022-12-04T07:26:24;37.15;;;11.97;;
37065;SDS011;22981;43.080;25.550;2022-12-04T07:28:52;22.75;;;13.60;;
37065;SDS011;22981;43.080;25.550;2022-12-04T07:31:21;29.42;;;12.33;;
37065;SDS011;22981;43.080;25.550;2022-12-04T07:33:50;20.32;;;12.68;;
37065;SDS011;22981;43.080;25.550;2022-12-04T07:36:19;19.55;;;11.65;;
37065;SDS011;22981;43.080;25.550;2022-12-04T07:38:48;20.92;;;12.30;;
37065;SDS011;22981;43.080;25.550;2022-12-04T07:41:16;20.80;;;12.07;;
37065;SDS011;22981;43.080;25.550;2022-12-04T07:43:44;19.35;;;13.25;;
37065;SDS011;22981;43.080;25.550;2022-12-04T07:46:17;20.35;;;12.60;;
37065;SDS011;22981;43.080;25.550;2022-12-04T07:48:45;27.30;;;17.10;;
37065;SDS011;22981;43.080;25.550;2022-12-04T07:51:14;26.17;;;15.32;;
37065;SDS011;22981;43.080;25.550;2022-12-04T07:53:45;27.22;;;13.43;;
37065;SDS011;22981;43.080;25.550;2022-12-04T07:56:14;21.35;;;13.10;;
37065;SDS011;22981;43.080;25.550;2022-12-04T07:58:42;22.58;;;12.90;;
37065;SDS011;22981;43.080;25.550;2022-12-04T08:01:11;23.32;;;14.25;;
37065;SDS011;22981;43.080;25.550;2022-12-04T08:03:41;23.65;;;14.33;;
37065;SDS011;22981;43.080;25.550;2022-12-04T08:06:10;35.17;;;14.05;;
37065;SDS011;22981;43.080;25.550;2022-12-04T08:08:38;30.27;;;14.73;;
37065;SDS011;22981;43.080;25.550;2022-12-04T08:11:11;25.20;;;14.23;;
37065;SDS011;22981;43.080;25.550;2022-12-04T08:13:36;31.87;;;18.27;;
37065;SDS011;22981;43.080;25.550;2022-12-04T08:16:04;47.73;;;25.37;;
37065;SDS011;22981;43.080;25.550;2022-12-04T08:18:34;39.42;;;23.75;;
37065;SDS011;22981;43.080;25.550;2022-12-04T08:21:03;47.27;;;25.97;;
37065;SDS011;22981;43.080;25.550;2022-12-04T08:23:32;56.73;;;31.17;;
37065;SDS011;22981;43.080;25.550;2022-12-04T08:26:00;43.92;;;22.05;;
37065;SDS011;22981;43.080;25.550;2022-12-04T08:28:28;32.15;;;17.57;;
37065;SDS011;22981;43.080;25.550;2022-12-04T08:31:10;55.50;;;20.50;;
37065;SDS011;22981;43.080;25.550;2022-12-04T08:33:42;34.25;;;16.93;;
37065;SDS011;22981;43.080;25.550;2022-12-04T08:36:11;40.58;;;16.90;;
37065;SDS011;22981;43.080;25.550;2022-12-04T08:38:40;40.23;;;19.90;;
37065;SDS011;22981;43.080;25.550;2022-12-04T08:41:10;33.95;;;17.35;;
37065;SDS011;22981;43.080;25.550;2022-12-04T08:43:39;49.08;;;27.32;;
37065;SDS011;22981;43.080;25.550;2022-12-04T08:46:08;39.30;;;20.55;;
37065;SDS011;22981;43.080;25.550;2022-12-04T08:48:40;37.90;;;21.35;;
37065;SDS011;22981;43.080;25.550;2022-12-04T08:51:11;44.15;;;23.65;;
37065;SDS011;22981;43.080;25.550;2022-12-04T08:56:07;31.62;;;17.75;;
37065;SDS011;22981;43.080;25.550;2022-12-04T08:58:35;32.17;;;17.77;;
37065;SDS011;22981;43.080;25.550;2022-12-04T09:01:04;40.43;;;19.62;;
37065;SDS011;22981;43.080;25.550;2022-12-04T09:03:33;31.60;;;17.32;;
37065;SDS011;22981;43.080;25.550;2022-12-04T09:06:01;36.23;;;19.15;;
37065;SDS011;22981;43.080;25.550;2022-12-04T09:08:31;36.63;;;20.72;;
37065;SDS011;22981;43.080;25.550;2022-12-04T09:11:04;36.60;;;19.90;;
37065;SDS011;22981;43.080;25.550;2022-12-04T09:13:33;34.48;;;20.55;;
37065;SDS011;22981;43.080;25.550;2022-12-04T09:16:02;37.13;;;21.90;;
37065;SDS011;22981;43.080;25.550;2022-12-04T09:18:32;42.13;;;20.75;;
37065;SDS011;22981;43.080;25.550;2022-12-04T09:21:01;32.88;;;19.12;;
37065;SDS011;22981;43.080;25.550;2022-12-04T09:23:31;33.08;;;20.88;;
37065;SDS011;22981;43.080;25.550;2022-12-04T09:26:00;39.08;;;21.90;;
37065;SDS011;22981;43.080;25.550;2022-12-04T09:28:28;42.85;;;24.20;;
37065;SDS011;22981;43.080;25.550;2022-12-04T09:30:57;33.83;;;22.52;;
37065;SDS011;22981;43.080;25.550;2022-12-04T09:33:26;34.95;;;24.37;;
37065;SDS011;22981;43.080;25.550;2022-12-04T09:35:57;43.80;;;29.18;;
37065;SDS011;22981;43.080;25.550;2022-12-04T09:38:25;40.03;;;24.02;;
37065;SDS011;22981;43.080;25.550;2022-12-04T09:40:56;48.90;;;25.20;;
37065;SDS011;22981;43.080;25.550;2022-12-04T09:46:31;35.48;;;19.20;;
37065;SDS011;22981;43.080;25.550;2022-12-04T09:49:14;39.58;;;20.92;;
37065;SDS011;22981;43.080;25.550;2022-12-04T09:51:43;40.05;;;24.63;;
37065;SDS011;22981;43.080;25.550;2022-12-04T09:54:13;43.25;;;24.00;;
37065;SDS011;22981;43.080;25.550;2022-12-04T09:56:43;48.63;;;31.25;;
37065;SDS011;22981;43.080;25.550;2022-12-04T09:59:23;45.92;;;28.55;;
37065;SDS011;22981;43.080;25.550;2022-12-04T10:01:55;44.03;;;27.85;;
37065;SDS011;22981;43.080;25.550;2022-12-04T10:04:23;42.83;;;25.45;;
37065;SDS011;22981;43.080;25.550;2022-12-04T10:06:53;46.45;;;26.23;;
37065;SDS011;22981;43.080;25.550;2022-12-04T10:09:27;46.88;;;27.48;;
37065;SDS011;22981;43.080;25.550;2022-12-04T10:20:45;42.58;;;24.72;;
37065;SDS011;22981;43.080;25.550;2022-12-04T10:23:17;42.75;;;27.17;;
37065;SDS011;22981;43.080;25.550;2022-12-04T10:25:43;40.92;;;25.55;;
37065;SDS011;22981;43.080;25.550;2022-12-04T10:28:30;43.48;;;24.18;;
37065;SDS011;22981;43.080;25.550;2022-12-04T10:31:03;39.65;;;23.70;;
37065;SDS011;22981;43.080;25.550;2022-12-04T10:33:45;38.45;;;24.10;;
37065;SDS011;22981;43.080;25.550;2022-12-04T10:36:16;40.08;;;23.25;;
37065;SDS011;22981;43.080;25.550;2022-12-04T10:38:53;41.58;;;25.35;;
37065;SDS011;22981;43.080;25.550;2022-12-04T10:41:52;42.45;;;25.05;;
37065;SDS011;22981;43.080;25.550;2022-12-04T10:44:21;41.50;;;23.40;;
37065;SDS011;22981;43.080;25.550;2022-12-04T10:46:49;40.15;;;24.55;;
37065;SDS011;22981;43.080;25.550;2022-12-04T11:05:41;27.20;;;20.32;;
37065;SDS011;22981;43.080;25.550;2022-12-04T11:08:22;28.45;;;20.10;;
37065;SDS011;22981;43.080;25.550;2022-12-04T11:10:59;27.98;;;19.82;;
37065;SDS011;22981;43.080;25.550;2022-12-04T11:13:24;28.80;;;20.40;;
37065;SDS011;22981;43.080;25.550;2022-12-04T11:15:53;29.60;;;20.50;;
37065;SDS011;22981;43.080;25.550;2022-12-04T11:18:30;28.50;;;20.82;;
37065;SDS011;22981;43.080;25.550;2022-12-04T11:23:33;29.95;;;21.77;;
37065;SDS011;22981;43.080;25.550;2022-12-04T11:26:03;31.80;;;21.95;;
37065;SDS011;22981;43.080;25.550;2022-12-04T11:28:30;29.92;;;22.10;;
37065;SDS011;22981;43.080;25.550;2022-12-04T11:31:00;31.07;;;23.15;;
37065;SDS011;22981;43.080;25.550;2022-12-04T11:33:33;26.17;;;19.77;;
37065;SDS011;22981;43.080;25.550;2022-12-04T11:36:04;33.08;;;23.95;;
37065;SDS011;22981;43.080;25.550;2022-12-04T11:38:33;41.60;;;28.92;;
37065;SDS011;22981;43.080;25.550;2022-12-04T11:41:02;36.55;;;26.27;;
37065;SDS011;22981;43.080;25.550;2022-12-04T11:43:31;36.73;;;27.65;;
37065;SDS011;22981;43.080;25.550;2022-12-04T11:46:14;35.68;;;25.92;;
37065;SDS011;22981;43.080;25.550;2022-12-04T11:48:39;37.90;;;28.02;;
37065;SDS011;22981;43.080;25.550;2022-12-04T11:51:13;50.20;;;39.50;;
37065;SDS011;22981;43.080;25.550;2022-12-04T11:53:51;37.60;;;27.50;;
37065;SDS011;22981;43.080;25.550;2022-12-04T11:56:38;39.05;;;28.23;;
37065;SDS011;22981;43.080;25.550;2022-12-04T12:07:15;42.95;;;28.57;;
37065;SDS011;22981;43.080;25.550;2022-12-04T12:15:14;30.48;;;24.60;;
37065;SDS011;22981;43.080;25.550;2022-12-04T12:18:06;30.32;;;25.02;;
37065;SDS011;22981;43.080;25.550;2022-12-04T12:20:33;34.63;;;27.77;;
37065;SDS011;22981;43.080;25.550;2022-12-04T12:26:09;34.98;;;24.72;;
37065;SDS011;22981;43.080;25.550;2022-12-04T12:31:46;32.93;;;25.37;;
37065;SDS011;22981;43.080;25.550;2022-12-04T12:34:26;27.15;;;23.45;;
37065;SDS011;22981;43.080;25.550;2022-12-04T12:36:52;26.00;;;20.85;;
37065;SDS011;22981;43.080;25.550;2022-12-04T12:39:28;32.55;;;25.43;;
37065;SDS011;22981;43.080;25.550;2022-12-04T12:41:52;27.10;;;21.97;;
37065;SDS011;22981;43.080;25.550;2022-12-04T12:47:22;24.60;;;18.92;;
37065;SDS011;22981;43.080;25.550;2022-12-04T12:55:24;21.77;;;18.42;;
37065;SDS011;22981;43.080;25.550;2022-12-04T12:58:11;24.90;;;20.05;;
37065;SDS011;22981;43.080;25.550;2022-12-04T13:00:44;25.95;;;19.42;;
37065;SDS011;22981;43.080;25.550;2022-12-04T13:03:46;27.73;;;22.45;;
37065;SDS011;22981;43.080;25.550;2022-12-04T13:06:16;27.48;;;21.15;;
37065;SDS011;22981;43.080;25.550;2022-12-04T13:09:04;24.23;;;19.62;;
37065;SDS011;22981;43.080;25.550;2022-12-04T13:11:31;23.45;;;19.05;;
37065;SDS011;22981;43.080;25.550;2022-12-04T13:14:00;37.08;;;30.32;;
37065;SDS011;22981;43.080;25.550;2022-12-04T13:30:21;31.62;;;25.10;;
37065;SDS011;22981;43.080;25.550;2022-12-04T13:41:19;27.05;;;22.07;;
37065;SDS011;22981;43.080;25.550;2022-12-04T13:43:49;33.15;;;25.88;;
37065;SDS011;22981;43.080;25.550;2022-12-04T13:46:26;35.88;;;28.60;;
37065;SDS011;22981;43.080;25.550;2022-12-04T13:51:56;39.58;;;30.08;;
37065;SDS011;22981;43.080;25.550;2022-12-04T13:54:29;36.48;;;26.95;;
37065;SDS011;22981;43.080;25.550;2022-12-04T13:57:16;39.27;;;28.57;;
37065;SDS011;22981;43.080;25.550;2022-12-04T13:59:40;29.82;;;23.85;;
37065;SDS011;22981;43.080;25.550;2022-12-04T14:02:19;28.38;;;22.98;;
37065;SDS011;22981;43.080;25.550;2022-12-04T14:04:54;21.00;;;16.47;;
37065;SDS011;22981;43.080;25.550;2022-12-04T14:07:27;31.87;;;24.63;;
37065;SDS011;22981;43.080;25.550;2022-12-04T14:09:58;29.27;;;23.10;;
37065;SDS011;22981;43.080;25.550;2022-12-04T14:12:35;28.67;;;23.45;;
37065;SDS011;22981;43.080;25.550;2022-12-04T14:15:05;30.85;;;22.95;;
37065;SDS011;22981;43.080;25.550;2022-12-04T14:17:36;29.02;;;22.48;;
37065;SDS011;22981;43.080;25.550;2022-12-04T14:20:20;26.25;;;21.93;;
37065;SDS011;22981;43.080;25.550;2022-12-04T14:27:43;30.85;;;23.42;;
37065;SDS011;22981;43.080;25.550;2022-12-04T14:30:16;35.95;;;26.60;;
37065;SDS011;22981;43.080;25.550;2022-12-04T14:32:45;34.73;;;26.37;;
37065;SDS011;22981;43.080;25.550;2022-12-04T14:35:21;43.23;;;33.38;;
37065;SDS011;22981;43.080;25.550;2022-12-04T14:37:57;34.05;;;27.22;;
37065;SDS011;22981;43.080;25.550;2022-12-04T14:40:27;47.27;;;36.30;;
37065;SDS011;22981;43.080;25.550;2022-12-04T14:43:00;39.25;;;30.70;;
37065;SDS011;22981;43.080;25.550;2022-12-04T14:45:31;43.23;;;34.43;;
37065;SDS011;22981;43.080;25.550;2022-12-04T14:48:09;56.33;;;41.25;;
37065;SDS011;22981;43.080;25.550;2022-12-04T14:50:59;49.45;;;39.30;;
37065;SDS011;22981;43.080;25.550;2022-12-04T14:53:45;39.38;;;29.42;;
37065;SDS011;22981;43.080;25.550;2022-12-04T14:56:22;39.13;;;29.10;;
37065;SDS011;22981;43.080;25.550;2022-12-04T14:59:04;59.58;;;47.67;;
37065;SDS011;22981;43.080;25.550;2022-12-04T15:01:39;55.20;;;43.50;;
37065;SDS011;22981;43.080;25.550;2022-12-04T15:04:22;70.72;;;55.08;;
37065;SDS011;22981;43.080;25.550;2022-12-04T15:06:39;55.12;;;44.20;;
37065;SDS011;22981;43.080;25.550;2022-12-04T15:09:13;57.10;;;44.65;;
37065;SDS011;22981;43.080;25.550;2022-12-04T15:12:12;50.52;;;35.40;;
37065;SDS011;22981;43.080;25.550;2022-12-04T15:14:41;55.73;;;42.15;;
37065;SDS011;22981;43.080;25.550;2022-12-04T15:17:11;57.30;;;44.65;;
37065;SDS011;22981;43.080;25.550;2022-12-04T15:19:40;50.20;;;38.02;;
37065;SDS011;22981;43.080;25.550;2022-12-04T15:24:51;37.00;;;28.23;;
37065;SDS011;22981;43.080;25.550;2022-12-04T15:27:20;34.43;;;25.92;;
37065;SDS011;22981;43.080;25.550;2022-12-04T15:29:50;41.53;;;29.02;;
37065;SDS011;22981;43.080;25.550;2022-12-04T15:32:20;38.05;;;28.60;;
37065;SDS011;22981;43.080;25.550;2022-12-04T15:34:51;40.23;;;30.40;;
37065;SDS011;22981;43.080;25.550;2022-12-04T15:37:21;69.95;;;55.15;;
37065;SDS011;22981;43.080;25.550;2022-12-04T15:39:54;99.37;;;72.45;;
37065;SDS011;22981;43.080;25.550;2022-12-04T15:44:56;65.55;;;51.50;;
37065;SDS011;22981;43.080;25.550;2022-12-04T15:47:30;62.27;;;48.52;;
37065;SDS011;22981;43.080;25.550;2022-12-04T15:50:09;63.95;;;42.55;;
37065;SDS011;22981;43.080;25.550;2022-12-04T15:52:49;58.95;;;40.00;;
37065;SDS011;22981;43.080;25.550;2022-12-04T15:55:18;57.83;;;40.15;;
37065;SDS011;22981;43.080;25.550;2022-12-04T15:57:56;53.48;;;38.63;;
37065;SDS011;22981;43.080;25.550;2022-12-04T16:00:34;46.48;;;35.98;;
37065;SDS011;22981;43.080;25.550;2022-12-04T16:05:49;44.50;;;32.17;;
37065;SDS011;22981;43.080;25.550;2022-12-04T16:08:32;37.17;;;29.15;;
37065;SDS011;22981;43.080;25.550;2022-12-04T16:13:33;48.63;;;36.05;;
37065;SDS011;22981;43.080;25.550;2022-12-04T16:16:06;50.17;;;33.85;;
37065;SDS011;22981;43.080;25.550;2022-12-04T16:18:36;53.05;;;34.90;;
37065;SDS011;22981;43.080;25.550;2022-12-04T16:21:04;52.08;;;35.52;;
37065;SDS011;22981;43.080;25.550;2022-12-04T16:23:34;50.17;;;34.67;;
37065;SDS011;22981;43.080;25.550;2022-12-04T16:26:01;48.33;;;33.25;;
37065;SDS011;22981;43.080;25.550;2022-12-04T16:28:29;39.05;;;28.83;;
37065;SDS011;22981;43.080;25.550;2022-12-04T16:30:57;36.80;;;27.00;;
37065;SDS011;22981;43.080;25.550;2022-12-04T16:33:26;32.98;;;26.27;;
37065;SDS011;22981;43.080;25.550;2022-12-04T16:35:53;39.35;;;29.72;;
37065;SDS011;22981;43.080;25.550;2022-12-04T16:38:21;48.20;;;32.98;;
37065;SDS011;22981;43.080;25.550;2022-12-04T16:40:48;42.75;;;32.65;;
37065;SDS011;22981;43.080;25.550;2022-12-04T16:43:16;44.45;;;32.03;;
37065;SDS011;22981;43.080;25.550;2022-12-04T16:45:50;40.08;;;31.00;;
37065;SDS011;22981;43.080;25.550;2022-12-04T16:48:19;44.15;;;32.60;;
37065;SDS011;22981;43.080;25.550;2022-12-04T16:50:47;57.55;;;40.67;;
37065;SDS011;22981;43.080;25.550;2022-12-04T16:53:15;50.33;;;36.83;;
37065;SDS011;22981;43.080;25.550;2022-12-04T16:55:45;51.50;;;37.03;;